Tiempo atmosférico en la estación meteorológica de Quintanar De La Orden, Toledo (691 m.)



Fecha
DESCASC
Temp. máxima en grados centígrados (hora)
DESCASC
Temp. mínima en grados centígrados (hora)
DESCASC
Temp. media en grados centígrados
DESCASC
Racha de viento máxima en m/sg (hora)
DESCASC
Velocidad máxima media en intervalos de 10 minutos(hora)
DESCASC
Precipitaciones diarias en mm
DESCASC
Precipitaciones de 00:00 a 06:00 en mm
DESCASC
Precipitaciones de 06:00 a 12:00 en mm
DESCASC
Precipitaciones de 12:00 a 18:00 en mm
DESCASC
Precipitaciones de 18:00 a 24:00 en mm
DESCASC
22-01-2020 11.9 (15:00) 5.3 (00:40) 8.6 10 (12:40) 3.61 (14:30) 0.4 0.3 0.1 0 0
21-01-2020 -- (--) -- (--) -- -- (--) -- (--) -- -- -- -- 0.1
20-01-2020 -- (--) -- (--) -- -- (--) -- (--) -- 0.1 0.1 0 --
19-01-2020 8.8 (00:10) 2.3 (00:00) 5.6 14.17 (15:00) 7.22 (14:00) 4 3.6 0.2 0.1 0.1
18-01-2020 9.9 (13:50) 4.6 (00:00) 7.2 10.28 (17:10) 6.67 (15:30) 2.2 0 1.6 0.3 0.3
17-01-2020 12.3 (14:10) 3.9 (00:00) 8.1 8.06 (15:50) 4.17 (13:50) 0 0 0 0 0
16-01-2020 14.9 (15:50) 4.7 (00:00) 9.8 8.06 (13:50) 5 (16:50) 0 0 0 0 0
15-01-2020 12.3 (15:20) 1.5 (00:00) 6.9 6.11 (14:10) 3.33 (13:00) 0 0 0 0 0
14-01-2020 10.6 (16:10) -2.5 (-00:0) 4.1 4.72 (13:30) 2.5 (13:30) 0 0 0 0 0
13-01-2020 10.1 (15:20) -3.8 (-00:0) 3.2 4.72 (14:20) 3.06 (14:20) 0 0 0 0 0
12-01-2020 11.3 (15:50) -3.4 (08:40) 4 6.11 (16:30) 2.5 (15:30) 0 0 0 0 0
11-01-2020 12.5 (16:30) -1.7 (-00:0) 5.4 4.72 (00:20) 2.5 (00:20) 0 0 0 0 0
10-01-2020 10.3 (16:10) -0.6 (-00:0) 4.9 10 (15:50) 5.56 (15:50) 0 0 0 0 0
09-01-2020 11.6 (16:30) 3.3 (00:00) 7.5 5.83 (05:10) 2.78 (12:00) 0 0 0 0 0
08-01-2020 14.9 (16:50) -1.1 (-00:0) 6.9 5 (16:30) 2.5 (15:50) 0 0 0 0 0
07-01-2020 14.8 (16:20) -1.5 (-00:0) 6.7 4.44 (15:40) 1.94 (15:20) 0 0 0 0 0
06-01-2020 14.3 (16:20) -0.9 (-00:0) 6.7 2.78 (13:10) 1.67 (22:30) 0 0 0 0 0
05-01-2020 13.6 (16:40) -1.6 (-00:0) 6 3.33 (03:40) 1.39 (02:40) 0 0 0 0 0
04-01-2020 11.5 (16:00) -1.7 (-00:0) 4.9 4.17 (15:10) 2.22 (00:20) 0 0 0 0 0
03-01-2020 7.2 (15:20) -0.2 (00:00) 3.5 3.89 (23:59) 2.22 (22:30) 0.2 0.1 0.1 0 0
02-01-2020 13.1 (16:10) -1.7 (-00:0) 5.7 2.5 (17:00) 1.39 (17:00) 0.7 0 0.7 0 0
01-01-2020 6 (16:50) -0.6 (-00:0) 2.7 2.5 (20:50) 1.11 (20:00) 0 0 0 0 0
31-12-2019 12.9 (16:00) -1.5 (-00:0) 5.7 3.61 (13:10) 2.22 (13:30) 0 0 0 0 0
30-12-2019 9.5 (16:10) -0.6 (-00:0) 4.4 6.39 (11:20) 2.78 (11:10) 0 0 0 0 0
29-12-2019 14.7 (14:50) 0.5 (00:00) 7.6 4.44 (12:30) 2.22 (12:30) 0 0 0 0 0
28-12-2019 15.9 (16:00) 0.2 (00:00) 8 3.06 (14:50) 1.67 (00:20) 0 0 0 0 0
27-12-2019 -- (--) -- (--) -- -- (--) -- (--) -- -- -- 0 0
26-12-2019 -- (--) -- (--) -- -- (--) -- (--) -- -- -- -- --
25-12-2019 -- (--) -- (--) -- -- (--) -- (--) -- -- -- -- --

Gráficas

Temp. máximas Temp. mínimas Temp. medias Precipitaciones Rachas de viento máximas Velocidades máximas media en intervalos de 10 minutos

Datos horarios

Fecha y hora oficial Temperatura (ºC) Velocidad del viento (km/h) Dirección del viento Racha (km/h) Dirección de racha Precipitación (mm) Presión (hPa) Tendencia (hPa) Humedad (%)
2020-01-23 23:00:00 7.6 10 Sudeste 27 Sudeste 0 938 1.1 83
2020-01-23 22:00:00 7.4 9 Sudeste 23 Sudeste 0 937.4 1.3 81
2020-01-23 21:00:00 7.7 5 Sudeste 19 Sur 0 937.5 1.4 78
2020-01-23 20:00:00 7.8 5 Sudeste 18 Sudeste 0 936.9 1.1 75
2020-01-23 19:00:00 8.5 6 Sudeste 16 Sudeste 0 936.1 0.5 69
2020-01-23 18:00:00 10.2 6 Sudeste 18 Sur 0 936.1 0.4 61
2020-01-23 17:00:00 12.1 7 Sudeste 17 Sudeste 0 935.8 -0.6 53
2020-01-23 16:00:00 11.9 8 Sudeste 18 Sur 0 935.6 -1.8 52
2020-01-23 15:00:00 11.9 9 Sudeste 19 Sudeste 0 935.7 -2.2 56
2020-01-23 14:00:00 10.8 7 Sudeste 23 Sudeste 0 936.4 -0.9 62
2020-01-23 13:00:00 9.4 11 Sudeste 25 Sudeste 0 937.4 0.5 67
2020-01-23 12:00:00 8.4 10 Sudeste 28 Sudeste 0 937.9 1.5 74
2020-01-23 11:00:00 6.2 9 Sudeste 22 Sudeste 0 937.3 1.9 90
2020-01-23 10:00:00 4.5 5 Sudeste 18 Sudeste 0 936.9 1.4 93
2020-01-23 09:00:00 3.7 6 Sudeste 21 Sudeste 0 936.4 0.9 92
2020-01-23 08:00:00 4.1 6 Sudeste 19 Sudeste 0 935.4 -0.2 88
2020-01-23 07:00:00 4 6 Sudeste 16 Sudeste 0 935.5 -0.4 87
2020-01-23 06:00:00 3.9 4 Sudeste 13 Sur 0 935.5 -0.3 85
2020-01-23 05:00:00 4.5 6 Sudeste 17 Sudeste 0 935.6 -0.6 82
2020-01-23 04:00:00 4.8 6 Sudeste 21 Sudeste 0 935.9 0 81
2020-01-23 03:00:00 4.7 7 Sudeste 18 Sudeste 0 935.8 0 81
2020-01-23 02:00:00 4.6 4 Sudeste 12 Sudeste 0.1 936.2 0.7 81
2020-01-23 01:00:00 4.9 4 Sudeste 14 Sur 0 935.9 0.3 79
2020-01-23 00:00:00 5.3 5 Sudeste 18 Sudeste 0 935.8 0.4 78
2020-01-22 23:00:00 5.6 5 Sudeste 17 Sudeste 0 935.5 0 78
2020-01-22 22:00:00 5.6 4 Sudeste 13 Sudeste 0 935.6 1.2 78
2020-01-22 21:00:00 6.4 4 Sudeste 13 Sudeste 0 935.4 1.1 76
2020-01-22 20:00:00 6.4 0 Calma 6 Sudeste 0 935.5 1.4 76
2020-01-22 19:00:00 7.9 0 Calma 13 Sudeste 0 934.4 0.1 68
2020-01-22 18:00:00 9.8 4 Sudeste 18 Sudeste 0 934.3 -0.5 60
2020-01-22 17:00:00 11.1 7 Sudeste 21 Sur 0 934.1 -1.4 53
2020-01-22 16:00:00 11.5 10 Sudeste 30 Sudeste 0 934.3 -1.5 52
2020-01-22 15:00:00 11.9 8 Sudeste 30 Sudeste 0 934.8 -1.8 55
2020-01-22 14:00:00 10 10 Sudeste 27 Sudeste 0 935.5 -1.1 63
2020-01-22 13:00:00 10.1 9 Sudeste 36 Este 0 935.8 -0.9 64
2020-01-22 12:00:00 8.8 9 Sudeste 29 Sur 0 936.6 0 75
2020-01-22 11:00:00 8.2 9 Sudeste 30 Sudeste 0 936.6 0.7 81
2020-01-22 10:00:00 6.6 7 Sudeste 19 Sudeste 0.1 936.7 1.9 89
2020-01-22 09:00:00 6.4 7 Sudeste 16 Sudeste 0 936.6 2 87
2020-01-22 08:00:00 6.4 5 Sudeste 19 Sudeste 0 935.9 0.7 87
2020-01-22 07:00:00 6 4 Sudeste 17 Este 0 934.8 -0.1 87
2020-01-22 06:00:00 6 8 Este 22 Sur 0.3 934.6 -0.5 86
2020-01-22 05:00:00 6.5 6 Sudeste 25 Sudeste 0 935.2 -0.1 85
2020-01-22 04:00:00 6.6 7 Sudeste 21 Sudeste 0 934.9 -0.2 85
2020-01-22 03:00:00 6.6 5 Este 16 Este 0 935.1 0.3 82
2020-01-22 02:00:00 6.4 4 Este 18 Este 0 935.3 0.5 81
2020-01-22 01:00:00 5.9 6 Este 19 Sudeste 0 935.1 1.1 78
2020-01-22 00:00:00 5.8 5 Este 22 Este 0 934.8 1.3 75
2020-01-21 23:00:00 5.7 7 Este 22 Nordeste 0 934.8 1.1 76
2020-01-21 22:00:00 5.5 6 Este 24 Este 0 934 1.1 78
2020-01-21 21:00:00 5 7 Este 23 Este 0 933.5 0.8 82
2020-01-21 20:00:00 4.8 6 Este 27 Este 0.1 933.7 1.2 83
2020-01-21 19:00:00 4.5 13 Este 27 Este 0 932.9 0.7 86
2020-01-21 18:00:00 4.6 12 Nordeste 24 Este 0.3 932.7 0.4 88
2020-01-21 17:00:00 4.9 12 Este 33 Este 0.4 932.5 -0.5 86
2020-01-21 16:00:00 5.3 19 Este 37 Nordeste 0.5 932.2 -1.6 83
2020-01-21 15:00:00 6.3 15 Este 35 Nordeste 0 932.3 -- 75
2020-01-21 14:00:00 5.7 14 Este 36 Este 0 933 -- 69
2020-01-21 13:00:00 6.6 17 Nordeste -- -- -- 933.8 -- 63
2020-01-21 12:00:00 -- -- -- -- -- -- -- -- --
2020-01-21 11:00:00 -- -- -- -- -- -- -- -- --
2020-01-21 10:00:00 -- -- -- -- -- -- -- -- --
2020-01-21 09:00:00 -- -- -- -- -- -- -- -- --
2020-01-21 08:00:00 -- -- -- -- -- -- -- -- --
2020-01-21 07:00:00 -- -- -- -- -- -- -- -- --
2020-01-21 06:00:00 -- -- -- -- -- -- -- -- --
2020-01-21 05:00:00 -- -- -- -- -- -- -- -- --
2020-01-21 04:00:00 -- -- -- -- -- -- -- -- --
2020-01-21 03:00:00 -- -- -- -- -- -- -- -- --
2020-01-21 02:00:00 -- -- -- -- -- -- -- -- --
2020-01-21 01:00:00 -- -- -- -- -- -- -- -- --
2020-01-21 00:00:00 -- -- -- -- -- -- -- -- --
2020-01-20 23:00:00 -- -- -- -- -- -- -- -- --
2020-01-20 22:00:00 -- -- -- -- -- -- -- -- --
2020-01-20 21:00:00 -- -- -- -- -- -- -- -- --
2020-01-20 20:00:00 -- -- -- -- -- -- -- -- --
2020-01-20 19:00:00 -- -- -- -- -- -- -- -- --
2020-01-20 18:00:00 5.2 11 Nordeste 25 Nordeste 0 937.6 0.1 49
2020-01-20 17:00:00 7.1 10 Este 37 Este 0 937.5 -0.2 46
2020-01-20 16:00:00 6.2 8 Nordeste 25 Este 0 937.2 -1.2 50
2020-01-20 15:00:00 6 9 Nordeste 30 Este 0 937.5 -1.6 49
2020-01-20 14:00:00 5.5 14 Nordeste 31 Nordeste 0 937.7 -1.3 46
2020-01-20 13:00:00 3.9 13 Nordeste 26 Nordeste 0 938.4 -0.6 49
2020-01-20 12:00:00 3.6 13 Nordeste 32 Nordeste 0 939.1 0.2 49
2020-01-20 11:00:00 2.5 18 Nordeste 32 Nordeste 0.1 939 0.2 46
2020-01-20 10:00:00 1.1 16 Nordeste 38 Nordeste 0 939 0.7 49
2020-01-20 09:00:00 1.1 18 Nordeste 32 Nordeste 0 938.9 -0.1 48
2020-01-20 08:00:00 1.1 16 Nordeste 39 Nordeste 0 938.8 -0.3 49
2020-01-20 07:00:00 1 22 Nordeste 42 Nordeste 0 938.3 -1.3 49
2020-01-20 06:00:00 0.9 21 Nordeste 40 Nordeste 0 939 -0.8 50
2020-01-20 05:00:00 1.1 21 Nordeste 44 Nordeste 0 939.1 -1.2 49
2020-01-20 04:00:00 1.1 23 Nordeste 45 Nordeste 0 939.6 -1.1 50
2020-01-20 03:00:00 1.3 23 Nordeste 45 Nordeste 0.1 939.8 -1.1 50
2020-01-20 02:00:00 1.7 23 Nordeste 42 Nordeste 0 940.3 -0.3 50
2020-01-20 01:00:00 2.2 19 Nordeste 34 Nordeste 0 940.7 0.2 51
2020-01-20 00:00:00 2.4 15 Nordeste 33 Nordeste 0 940.9 0.3 51
2020-01-19 23:00:00 2.6 16 Nordeste 30 Nordeste 0 940.6 0.8 49
2020-01-19 22:00:00 3.1 12 Nordeste 32 Este 0 940.5 1.1 49
2020-01-19 21:00:00 4.2 13 Nordeste 31 Nordeste 0.1 940.6 1.9 48
2020-01-19 20:00:00 4.9 11 Nordeste 25 Norte 0 939.8 2.1 53
2020-01-19 19:00:00 5.3 9 Este 20 Este 0 939.4 1.8 51
2020-01-19 18:00:00 5.2 13 Nordeste 33 Nordeste 0 938.7 1.3 57
2020-01-19 17:00:00 5.3 17 Nordeste 38 Nordeste 0 937.7 0.3 60
2020-01-19 16:00:00 5.3 21 Nordeste 45 Nordeste 0.1 937.6 -0.4 59
2020-01-19 15:00:00 6.4 25 Nordeste 51 Nordeste 0 937.4 -0.6 60
2020-01-19 14:00:00 6.6 26 Nordeste 45 Nordeste 0 937.4 -0.9 60
2020-01-19 13:00:00 6.3 20 Nordeste 39 Nordeste 0 938 0.4 64
2020-01-19 12:00:00 6.2 19 Nordeste 35 Nordeste 0.1 938 0.5 73
2020-01-19 11:00:00 5.4 16 Norte 28 Nordeste 0 938.3 0.7 79
2020-01-19 10:00:00 4.5 9 Norte 17 Norte 0 937.6 -0.2 86
2020-01-19 09:00:00 3.1 5 Norte 15 Norte 0 937.5 -0.2 87
2020-01-19 08:00:00 2.8 5 Norte 11 Norte 0.1 937.6 -0.4 87
2020-01-19 07:00:00 3.1 4 Nordeste 12 Norte 0 937.8 -0.4 87
2020-01-19 06:00:00 4.3 6 Norte 12 Norte 0 937.7 -0.9 85
2020-01-19 05:00:00 4.8 4 Norte 18 Norte 0.1 938 -0.6 82
2020-01-19 04:00:00 6 5 Norte 13 Noroeste 0 938.2 -0.3 87
2020-01-19 03:00:00 6.2 8 Noroeste 43 Noroeste 0.5 938.6 -0.5 84
2020-01-19 02:00:00 6.1 13 Noroeste 40 Noroeste 3 938.6 -1.1 85
2020-01-19 01:00:00 8.3 9 Noroeste 20 Noroeste 0 938.5 -1.4 88
2020-01-19 00:00:00 8.7 12 Noroeste 21 Noroeste 0 939.1 -1.3 87
2020-01-18 23:00:00 8.7 13 Noroeste 31 Noroeste 0.1 939.7 -0.4 79
2020-01-18 22:00:00 8.4 8 Sudoeste 20 Oeste 0 939.9 -1.8 94
2020-01-18 21:00:00 8.9 12 Oeste 22 Sudoeste 0.1 940.4 -1.5 94
2020-01-18 20:00:00 8.8 15 Sudoeste 24 Sudoeste 0 940.1 -2.2 94
2020-01-18 19:00:00 8.8 15 Sudoeste 31 Oeste 0.1 941.7 -1.7 94
2020-01-18 18:00:00 8.9 19 Sudoeste 37 Sudoeste 0 941.9 -2.3 93
2020-01-18 17:00:00 9 21 Sudoeste 35 Sudoeste 0.1 942.3 -3.1 89
2020-01-18 16:00:00 9.4 20 Sudoeste 36 Sudoeste 0 943.4 -3.8 85
2020-01-18 15:00:00 9.4 18 Sudoeste 34 Sudoeste 0.1 944.2 -4.2 88
2020-01-18 14:00:00 9.4 24 Sudoeste 32 Sudoeste 0 945.4 -3.2 82
2020-01-18 13:00:00 9 17 Sudoeste 26 Sudoeste 0.1 947.2 -1.3 88
2020-01-18 12:00:00 7.3 10 Sur 16 Sudoeste 0.1 948.4 0.1 92
2020-01-18 11:00:00 6.3 7 Sur 15 Sur 0.2 948.6 -1.1 92
2020-01-18 10:00:00 6.1 4 Sudeste 15 Sur 0.1 948.5 -1 94
2020-01-18 09:00:00 5 7 Sur 17 Sur 1.1 948.3 0.1 94
2020-01-18 08:00:00 5 2 Sudoeste 7 Sudoeste 0.1 949.7 1.1 92
2020-01-18 07:00:00 5.6 0 Calma 4 Oeste 0 949.5 0.5 88
2020-01-18 06:00:00 5.8 2 Este 7 Este 0 948.2 -1.2 88
2020-01-18 05:00:00 5.7 4 Sudeste 8 Sur 0 948.6 -1.3 88
2020-01-18 04:00:00 5.7 0 Calma 7 Sudeste 0 949 -1.4 87
2020-01-18 03:00:00 5.5 3 Sur 9 Sur 0 949.4 -1.3 85
2020-01-18 02:00:00 5.3 2 Sudeste 10 Sur 0 949.9 -0.7 85
2020-01-18 01:00:00 6 0 Calma 8 Oeste 0 950.4 -0.3 85
2020-01-18 00:00:00 5.6 0 Calma -- -- 0 950.7 0.4 82
2020-01-17 23:00:00 5.1 0 Calma 6 Sudoeste 0 950.6 0.5 82
2020-01-17 22:00:00 4.9 0 Calma 5 Sudoeste 0 950.7 0.9 80
2020-01-17 21:00:00 6.7 3 Norte 7 Nordeste 0 950.3 0.8 76
2020-01-17 20:00:00 7.3 4 Nordeste 7 Nordeste 0 950.1 1.2 72
2020-01-17 19:00:00 8.2 4 Nordeste 8 Noroeste 0 949.8 1.2 65
2020-01-17 18:00:00 10.7 0 Calma 19 Noroeste 0 949.5 0.8 58
2020-01-17 17:00:00 11.8 10 Noroeste 20 Noroeste 0 948.9 -0.1 55
2020-01-17 16:00:00 11.9 6 Norte 29 Noroeste 0 948.6 -0.7 57
2020-01-17 15:00:00 11.8 10 Noroeste 28 Noroeste 0 948.7 -1.5 55
2020-01-17 14:00:00 11.9 13 Noroeste 28 Noroeste 0 949 -0.9 56
2020-01-17 13:00:00 11.6 8 Noroeste 25 Noroeste 0 949.3 0.2 59
2020-01-17 12:00:00 10.1 3 Noroeste 21 Noroeste 0 950.2 1.5 70
2020-01-17 11:00:00 9.3 3 Noroeste 17 Oeste 0 949.9 1.8 76
2020-01-17 10:00:00 6.3 11 Oeste 17 Oeste 0 949.1 1.6 82
2020-01-17 09:00:00 4.1 5 Sudoeste 16 Oeste 0 948.7 1.3 76
2020-01-17 08:00:00 3.9 4 Sudoeste 8 Sudoeste 0 948.1 1.3 71
2020-01-17 07:00:00 4.5 6 Sudoeste 17 Sudoeste 0 947.5 0.5 66
2020-01-17 06:00:00 5.2 6 Sudoeste 10 Sudoeste 0 947.4 0.1 62
2020-01-17 05:00:00 7 3 Sur 10 Oeste 0 946.8 0.1 59
2020-01-17 04:00:00 6.7 6 Sudoeste 17 Oeste 0 947 0 61
2020-01-17 03:00:00 6.4 6 Sudoeste 10 Sudoeste 0 947.3 0.4 62
2020-01-17 02:00:00 6.5 5 Sudoeste 12 Oeste 0 946.7 0 59
2020-01-17 01:00:00 6.2 4 Sudoeste 18 Oeste 0 947 0.7 58
2020-01-17 00:00:00 6.4 8 Sudoeste 19 Sudoeste 0 946.9 1 57
2020-01-16 23:00:00 7.5 6 Sudoeste 15 Sudoeste 0 946.7 1.4 54
2020-01-16 22:00:00 8 8 Sudoeste 14 Sudoeste 0 946.3 1.4 52
2020-01-16 21:00:00 8 5 Sudoeste 11 Sudoeste 0 945.9 0.8 49
2020-01-16 20:00:00 9.2 5 Sudoeste 10 Sudoeste 0 945.3 0.5 47
2020-01-16 19:00:00 10.9 4 Sudoeste 10 Oeste 0 944.9 0.2 42
2020-01-16 18:00:00 12.3 9 Sudoeste 23 Sudoeste 0 945.1 0.3 37
2020-01-16 17:00:00 13.9 17 Sudoeste 26 Oeste 0 944.8 -0.6 33
2020-01-16 16:00:00 14.7 13 Sudoeste 26 Sudoeste 0 944.7 -1.3 34
2020-01-16 15:00:00 14.4 12 Sudoeste 25 Oeste 0 944.8 -2.3 37
2020-01-16 14:00:00 13.2 12 Sudoeste 29 Sudoeste 0 945.4 -2 42
2020-01-16 13:00:00 12.8 10 Sudoeste 19 Sur 0 946 -1.1 55
2020-01-16 12:00:00 11 6 Sudoeste 16 Sur 0 947.1 0.4 58
2020-01-16 11:00:00 9.4 4 Sur 12 Sudeste 0 947.4 1 64
2020-01-16 10:00:00 6.6 6 Sudeste 15 Sudeste 0 947.1 0.7 73
2020-01-16 09:00:00 4.7 5 Sudeste 10 Sur 0 946.7 0.2 78
2020-01-16 08:00:00 5 3 Sudeste 11 Sudeste 0 946.4 0 76
2020-01-16 07:00:00 5.7 4 Sudeste 17 Sur 0 946.4 0.1 75
2020-01-16 06:00:00 6.1 4 Sur 14 Sudeste 0 946.5 0 75
2020-01-16 05:00:00 6.6 6 Sur 13 Sur 0 946.4 0 74
2020-01-16 04:00:00 7.1 3 Sur 9 Sudeste 0 946.3 -0.3 76
2020-01-16 03:00:00 7.1 0 Calma 6 Sur 0 946.5 -0.4 79
2020-01-16 02:00:00 7.9 0 Calma 9 Sur 0 946.4 -0.5 76
2020-01-16 01:00:00 8.6 4 Sur 10 Sur 0 946.6 0.2 75
2020-01-16 00:00:00 8.7 0 Calma 0 Calma 0 946.9 0.4 76
2020-01-15 23:00:00 8.8 0 Calma -- -- 0 946.9 0.9 75
2020-01-15 22:00:00 8.9 0 Calma -- -- 0 946.4 1 74
2020-01-15 21:00:00 8.8 0 Calma 8 Sudoeste 0 946.5 1.4 72
2020-01-15 20:00:00 9.7 0 Calma 9 Norte 0 946 1.6 68
2020-01-15 19:00:00 10.7 3 Oeste 10 Oeste 0 945.4 1.3 63
2020-01-15 18:00:00 11.2 2 Oeste 12 Oeste 0 945.1 1 59
2020-01-15 17:00:00 11.7 6 Oeste 18 Oeste 0 944.4 -0.2 55
2020-01-15 16:00:00 11.8 9 Oeste 18 Oeste 0 944.1 -1 52
2020-01-15 15:00:00 11.8 10 Sudoeste 22 Oeste 0 944.1 -1.3 52
2020-01-15 14:00:00 11.2 5 Oeste 19 Oeste 0 944.6 -0.5 51
2020-01-15 13:00:00 9.8 12 Sudoeste 22 Oeste 0 945.1 1 58
2020-01-15 12:00:00 7.5 7 Sudoeste 14 Sur 0 945.4 1.9 69
2020-01-15 11:00:00 6 4 Sur 14 Sudeste 0 945.1 1.5 77
2020-01-15 10:00:00 3.7 5 Sudeste 10 Sudeste 0 944.1 1.5 86
2020-01-15 09:00:00 2.5 3 Sudeste 11 Sur 0 943.5 0.8 90
2020-01-15 08:00:00 1.7 0 Calma 7 Sudeste 0 943.6 0.7 90
2020-01-15 07:00:00 1.9 5 Sudeste 10 Sudeste 0 942.6 -0.4 90
2020-01-15 06:00:00 1.7 0 Calma 6 Sudeste 0 942.7 0.1 88
2020-01-15 05:00:00 2.4 3 Sudeste 9 Sur 0 942.9 0.5 87
2020-01-15 04:00:00 2.6 0 Calma 8 Sur 0 943 0.7 85
2020-01-15 03:00:00 2.8 3 Sudeste 8 Sudeste 0 942.6 0 83
2020-01-15 02:00:00 3 3 Sudeste 7 Sur 0 942.4 0.2 82
2020-01-15 01:00:00 2.7 0 Calma 9 Sur 0 942.3 0 81
2020-01-15 00:00:00 3.1 0 Calma 8 Sudeste 0 942.6 0.6 79
2020-01-14 23:00:00 3.6 0 Calma 6 Sudeste 0 942.2 0.8 77
2020-01-14 22:00:00 3.9 0 Calma 7 Sudoeste 0 942.3 0.8 74
2020-01-14 21:00:00 4.5 0 Calma 6 Sudoeste 0 942 0.8 69
2020-01-14 20:00:00 5.8 3 Sudoeste 9 Sudoeste 0 941.4 0.8 65
2020-01-14 19:00:00 7 0 Calma 9 Sur 0 941.5 0.5 60
2020-01-14 18:00:00 8.7 0 Calma 6 Norte 0 941.2 0.6 55
2020-01-14 17:00:00 9.9 4 Noroeste 12 Sudoeste 0 940.6 -0.7 50
2020-01-14 16:00:00 10.4 2 Oeste 17 Oeste 0 941 -1.2 51
2020-01-14 15:00:00 9.2 5 Noroeste 17 Oeste 0 940.6 -2 52
2020-01-14 14:00:00 9.6 5 Oeste 17 Oeste 0 941.3 -1.4 55
2020-01-14 13:00:00 8 5 Sudoeste 12 Sudoeste 0 942.2 -0.6 61
2020-01-14 12:00:00 6 6 Sudoeste 10 Sudoeste 0 942.6 0.2 67
2020-01-14 11:00:00 4.2 5 Sur 8 Sudoeste 0 942.7 0.4 75
2020-01-14 10:00:00 1.5 0 Calma 6 Sur 0 942.8 0.9 91
2020-01-14 09:00:00 -1 0 Calma 6 Sur 0 942.4 0.2 92
2020-01-14 08:00:00 -1.8 0 Calma 4 Sur 0 942.3 0.1 91
2020-01-14 07:00:00 -1.6 0 Calma 3 Este 0 941.9 -0.3 91
2020-01-14 06:00:00 -1.7 0 Calma 5 Sudeste 0 942.2 -0.1 90
2020-01-14 05:00:00 -2 0 Calma 0 Calma 0 942.2 -0.7 88
2020-01-14 04:00:00 -1.8 0 Calma -- -- 0 942.2 -0.7 88
2020-01-14 03:00:00 -2 0 Calma 6 Nordeste 0 942.3 -1.4 87
2020-01-14 02:00:00 -1.7 0 Calma 6 Nordeste 0 942.9 -0.1 87
2020-01-14 01:00:00 -0.3 0 Calma 0 Calma 0 942.9 0.2 83
2020-01-14 00:00:00 -0.1 0 Calma 5 Nordeste 0 943.7 0.8 82
2020-01-13 23:00:00 0 3 Nordeste 6 Nordeste 0 943 0.1 81
2020-01-13 22:00:00 1.7 0 Calma 0 Calma 0 942.7 -0.5 76
2020-01-13 21:00:00 3 0 Calma 5 Nordeste 0 942.9 0.2 73
2020-01-13 20:00:00 4.4 0 Calma 4 Este 0 942.9 -0.2 68
2020-01-13 19:00:00 6.2 0 Calma -- -- 0 943.2 0.3 58
2020-01-13 18:00:00 8.6 0 Calma 6 Noroeste 0 942.7 -0.5 51
2020-01-13 17:00:00 9.6 3 Noroeste 11 Noroeste 0 943.1 -0.5 48
2020-01-13 16:00:00 9.9 2 Oeste 12 Noroeste 0 942.9 -1.7 47
2020-01-13 15:00:00 9.8 6 Oeste 17 Sudoeste 0 943.2 -2.4 46
2020-01-13 14:00:00 8 8 Sudoeste 15 Sudoeste 0 943.6 -2.4 52
2020-01-13 13:00:00 7.1 5 Sur 10 Sur 0 944.6 -1.1 54
2020-01-13 12:00:00 5.1 0 Calma 7 Sudeste 0 945.6 0.1 60
2020-01-13 11:00:00 2.9 4 Sur 6 Sur 0 946 0.2 72
2020-01-13 10:00:00 -0.2 2 Sur 6 Sur 0 945.7 0.2 83
2020-01-13 09:00:00 -3.2 0 Calma -- -- 0 945.5 -0.2 85
2020-01-13 08:00:00 -3.2 0 Calma 4 Nordeste 0 945.8 -0.2 86
2020-01-13 07:00:00 -3.7 3 Nordeste 4 Nordeste 0 945.5 -0.9 86
2020-01-13 06:00:00 -3.5 0 Calma -- -- 0 945.7 -1.3 85
2020-01-13 05:00:00 -2.2 0 Calma 3 Sur 0 946 -1.1 85
2020-01-13 04:00:00 -2.7 0 Calma 6 Nordeste 0 946.4 -1.1 82
2020-01-13 03:00:00 -3.3 0 Calma 4 Nordeste 0 947 -1.2 81
2020-01-13 02:00:00 -2.4 2 Nordeste 4 Nordeste 0 947.1 -0.9 79
2020-01-13 01:00:00 -1.8 0 Calma 5 Norte 0 947.5 -0.5 78
2020-01-13 00:00:00 -0.9 0 Calma 7 Nordeste 0 948.2 0.1 75
2020-01-12 23:00:00 -0.4 0 Calma 8 Nordeste 0 948 -0.1 72
2020-01-12 22:00:00 1.5 0 Calma -- -- 0 948 0.2 68
2020-01-12 21:00:00 3 0 Calma 5 Norte 0 948.1 0.7 62
2020-01-12 20:00:00 4.3 0 Calma 8 Norte 0 948.1 1.2 55
2020-01-12 19:00:00 6 0 Calma 7 Noroeste 0 947.8 0.6 46
2020-01-12 18:00:00 8.3 2 Noroeste 15 Noroeste 0 947.4 0.1 39
2020-01-12 17:00:00 10.7 4 Norte 22 Noroeste 0 946.9 -1 36
2020-01-12 16:00:00 11 4 Norte 19 Noroeste 0 947.2 -1.5 37
2020-01-12 15:00:00 10.9 6 Noroeste 19 Noroeste 0 947.3 -2.5 40
2020-01-12 14:00:00 9.9 4 Norte 10 Noroeste 0 947.9 -2.3 47
2020-01-12 13:00:00 8.7 0 Calma 6 Sudoeste 0 948.7 -0.8 56
2020-01-12 12:00:00 6.1 0 Calma 5 Oeste 0 949.8 0.5 66
2020-01-12 11:00:00 3.5 0 Calma -- -- 0 950.2 0.8 80
2020-01-12 10:00:00 -0.4 0 Calma -- -- 0 949.5 0.2 88
2020-01-12 09:00:00 -2.8 0 Calma 0 Calma 0 949.3 0.3 89
2020-01-12 08:00:00 -2.6 0 Calma -- -- 0 949.4 0 87
2020-01-12 07:00:00 -2.2 0 Calma -- -- 0 949.3 0 87
2020-01-12 06:00:00 -1.9 0 Calma -- -- 0 949 -0.4 87
2020-01-12 05:00:00 -1.7 0 Calma -- -- 0 949.4 0.1 84
2020-01-12 04:00:00 -1.7 0 Calma -- -- 0 949.3 0.1 84
2020-01-12 03:00:00 -1.5 0 Calma 6 Nordeste 0 949.4 -0.2 84
2020-01-12 02:00:00 -1.2 4 Nordeste 9 Nordeste 0 949.3 -0.2 83
2020-01-12 01:00:00 -1.2 6 Nordeste 10 Nordeste 0 949.2 -0.1 82
2020-01-12 00:00:00 -0.4 4 Nordeste 8 Nordeste 0 949.6 0.3 79
2020-01-11 23:00:00 0.2 5 Nordeste 9 Nordeste 0 949.5 0.6 76
2020-01-11 22:00:00 2.6 2 Nordeste 5 Nordeste 0 949.3 0.7 72
2020-01-11 21:00:00 3.9 0 Calma 6 Nordeste 0 949.3 1.2 68
2020-01-11 20:00:00 5 0 Calma 7 Norte 0 948.9 0.7 60
2020-01-11 19:00:00 7 0 Calma 7 Norte 0 948.6 0.5 50
2020-01-11 18:00:00 9.2 0 Calma 11 Noroeste 0 948.1 0.1 43
2020-01-11 17:00:00 11.7 4 Noroeste 11 Noroeste 0 948.2 -0.4 37
2020-01-11 16:00:00 11.6 3 Noroeste 10 Norte 0 948.1 -1.2 37
2020-01-11 15:00:00 11.1 4 Noroeste 13 Noroeste 0 948 -2.4 41
2020-01-11 14:00:00 11 0 Calma 11 Noroeste 0 948.6 -2 42
2020-01-11 13:00:00 9.7 0 Calma 8 Oeste 0 949.3 -0.4 47
2020-01-11 12:00:00 8.1 0 Calma 5 Sudeste 0 950.4 0.9 52
2020-01-11 11:00:00 4.7 0 Calma 7 Nordeste 0 950.6 1.1 72
2020-01-11 10:00:00 0 5 Nordeste 8 Este 0 949.7 0.9 86
2020-01-11 09:00:00 -1.5 0 Calma 4 Nordeste 0 949.5 1.2 87
2020-01-11 08:00:00 -1.3 0 Calma 9 Norte 0 949.5 1 86
2020-01-11 07:00:00 -1 0 Calma 6 Norte 0 948.8 0.5 85
2020-01-11 06:00:00 -0.1 0 Calma 10 Este 0 948.3 -0.1 84
2020-01-11 05:00:00 0.1 6 Nordeste 14 Nordeste 0 948.5 0.5 84
2020-01-11 04:00:00 0 4 Nordeste 11 Nordeste 0 948.3 0.2 83
2020-01-11 03:00:00 0.6 5 Nordeste 13 Nordeste 0 948.4 0.3 79
2020-01-11 02:00:00 1.3 8 Nordeste 14 Este 0 948 0 75
2020-01-11 01:00:00 2.2 7 Nordeste 17 Este 0 948.1 0.3 72
2020-01-11 00:00:00 2.6 7 Nordeste 18 Nordeste 0 948.1 0.8 67
2020-01-10 23:00:00 4.2 10 Nordeste 20 Nordeste 0 948 1.3 61
2020-01-10 22:00:00 3.4 6 Nordeste 16 Este 0 947.8 1.4 59
2020-01-10 21:00:00 4.6 3 Nordeste 13 Nordeste 0 947.3 1.5 54
2020-01-10 20:00:00 5.3 10 Nordeste 18 Nordeste 0 946.7 1.6 49
2020-01-10 19:00:00 6.7 11 Nordeste 30 Nordeste 0 946.4 1.1 45
2020-01-10 18:00:00 8.3 13 Nordeste 36 Nordeste 0 945.8 1.1 40
2020-01-10 17:00:00 9.8 16 Nordeste 32 Nordeste 0 945.1 -0.3 36
2020-01-10 16:00:00 10.2 18 Nordeste 36 Nordeste 0 945.3 -0.5 37
2020-01-10 15:00:00 9.7 18 Nordeste 36 Nordeste 0 944.7 -1.7 39
2020-01-10 14:00:00 9.7 14 Nordeste 32 Nordeste 0 945.4 -1.1 42
2020-01-10 13:00:00 8.6 19 Nordeste 35 Nordeste 0 945.8 -0.3 46
2020-01-10 12:00:00 7.3 13 Nordeste 24 Nordeste 0 946.4 0.8 60
2020-01-10 11:00:00 4.5 9 Nordeste 16 Nordeste 0 946.5 1.2 78
2020-01-10 10:00:00 2.1 6 Nordeste 13 Nordeste 0 946.1 2 93
2020-01-10 09:00:00 0.3 4 Nordeste 13 Nordeste 0 945.6 1.5 95
2020-01-10 08:00:00 -0.5 7 Nordeste 15 Nordeste 0 945.3 1 95
2020-01-10 07:00:00 0.1 6 Nordeste 12 Nordeste 0 944.1 -0.1 94
2020-01-10 06:00:00 0.5 3 Nordeste 6 Nordeste 0 944.1 -0.1 91
2020-01-10 05:00:00 1.6 0 Calma 0 Calma 0 944.3 0.1 91
2020-01-10 04:00:00 3.3 0 Calma 4 Este 0 944.2 -0.2 92
2020-01-10 03:00:00 2.9 0 Calma 0 Calma 0 944.2 0.2 91
2020-01-10 02:00:00 2.2 0 Calma 4 Nordeste 0 944.2 -0.2 91
2020-01-10 01:00:00 3.2 0 Calma 5 Sur 0 944.4 -0.7 91
2020-01-10 00:00:00 4.1 2 Sur 6 Sur 0 944 -0.8 91
2020-01-09 23:00:00 3.8 0 Calma -- -- 0 944.4 0.4 88
2020-01-09 22:00:00 4.4 0 Calma 4 Nordeste 0 945.1 0.9 88
2020-01-09 21:00:00 4.7 3 Nordeste 6 Norte 0 944.8 0.7 85
2020-01-09 20:00:00 6.9 0 Calma 7 Sudoeste 0 944 0.6 76
2020-01-09 19:00:00 7.6 3 Sudoeste 6 Oeste 0 944.2 0.5 72
2020-01-09 18:00:00 9.6 2 Oeste 9 Oeste 0 944.1 -0.2 64
2020-01-09 17:00:00 11 5 Sudoeste 10 Sur 0 943.4 -1.3 58
2020-01-09 16:00:00 11.3 0 Calma 11 Sudoeste 0 943.7 -3 60
2020-01-09 15:00:00 10.2 6 Sudoeste 13 Sur 0 944.3 -2.1 63
2020-01-09 14:00:00 8.3 7 Sur 15 Sur 0 944.7 -2 71
2020-01-09 13:00:00 6.6 5 Sudoeste 16 Sur 0 946.7 0.6 79
2020-01-09 12:00:00 5.4 10 Sur 19 Sur 0 946.4 0.8 81
2020-01-09 11:00:00 4.9 6 Sur 19 Sudeste 0 946.7 0.7 84
2020-01-09 10:00:00 3.9 5 Sudoeste 13 Sur 0 946.1 0.7 87
2020-01-09 09:00:00 3.3 5 Sudeste 11 Sudeste 0 945.6 0.1 87
2020-01-09 08:00:00 4 4 Sur 18 Sur 0 946 0.1 83
2020-01-09 07:00:00 5 5 Sudeste 18 Sudeste 0 945.4 -0.8 79
2020-01-09 06:00:00 5.3 4 Sudeste 21 Sudeste 0 945.5 -0.9 76
2020-01-09 05:00:00 5.2 6 Sudeste 12 Sudeste 0 945.9 -0.4 72
2020-01-09 04:00:00 6.4 3 Este 13 Sudeste 0 946.2 -0.8 70
2020-01-09 03:00:00 6.4 2 Sudeste 15 Sudeste 0 946.4 -0.6 71
2020-01-09 02:00:00 6.3 3 Este 15 Sur 0 946.3 -1.3 70
2020-01-09 01:00:00 6.4 2 Sudeste 12 Sudeste 0 947 -0.3 70
2020-01-09 00:00:00 6.9 4 Sudeste 10 Sudeste 0 947 -0.1 69
2020-01-08 23:00:00 7.2 4 Sudeste 12 Sudeste 0 947.6 0.3 69
2020-01-08 22:00:00 7.7 3 Sudeste 10 Sudeste 0 947.3 0.6 71
2020-01-08 21:00:00 8.3 0 Calma 13 Sudeste 0 947.1 0.4 67
2020-01-08 20:00:00 8.5 4 Sudeste 11 Sudeste 0 947.3 1 59
2020-01-08 19:00:00 10.3 0 Calma 7 Sudeste 0 946.7 0.4 44
2020-01-08 18:00:00 12.3 0 Calma 14 Sudeste 0 946.7 0.5 37
2020-01-08 17:00:00 14.8 5 Sudeste 18 Sudeste 0 946.3 -0.5 36
2020-01-08 16:00:00 14.2 8 Sur 17 Sur 0 946.3 -1.2 34
2020-01-08 15:00:00 13.9 5 Sur 10 Sur 0 946.2 -2.1 37
2020-01-08 14:00:00 12.4 3 Sur 8 Sudoeste 0 946.8 -1.5 44
2020-01-08 13:00:00 9.7 5 Sudoeste 10 Sudoeste 0 947.5 -0.8 52
2020-01-08 12:00:00 8.9 0 Calma 5 Sudoeste 0 948.3 0.3 53
2020-01-08 11:00:00 4.8 0 Calma 8 Nordeste 0 948.3 0.7 72
2020-01-08 10:00:00 0.7 5 Nordeste 8 Nordeste 0 948.3 0.5 80
2020-01-08 09:00:00 -0.7 0 Calma 4 Nordeste 0 948 0.2 83
2020-01-08 08:00:00 -0.9 0 Calma 6 Nordeste 0 947.6 -0.2 83
2020-01-08 07:00:00 -0.8 0 Calma 5 Nordeste 0 947.8 -0.7 83
2020-01-08 06:00:00 -0.9 4 Nordeste 6 Nordeste 0 947.8 -0.5 84
2020-01-08 05:00:00 -0.4 0 Calma 5 Nordeste 0 947.8 -0.6 84
2020-01-08 04:00:00 -0.6 0 Calma 7 Nordeste 0 948.5 0.1 82
2020-01-08 03:00:00 0.2 0 Calma 5 Nordeste 0 948.3 -0.7 82
2020-01-08 02:00:00 0.6 0 Calma -- -- 0 948.4 -0.3 81
2020-01-08 01:00:00 1.5 0 Calma 10 Nordeste 0 948.4 -0.2 79
2020-01-08 00:00:00 2.1 2 Nordeste 6 Nordeste 0 949 0 76
2020-01-07 23:00:00 2.9 3 Nordeste 7 Nordeste 0 948.7 0.2 74
2020-01-07 22:00:00 3.7 4 Nordeste 7 Nordeste 0 948.6 0.3 68
2020-01-07 21:00:00 4.6 6 Nordeste 8 Nordeste 0 949 1 66
2020-01-07 20:00:00 7.1 2 Nordeste 8 Noroeste 0 948.5 0.7 66
2020-01-07 19:00:00 9.4 2 Norte 6 Noroeste 0 948.3 0.3 57
2020-01-07 18:00:00 11.5 5 Noroeste 8 Noroeste 0 948 0 43
2020-01-07 17:00:00 14.4 4 Norte 13 Norte 0 947.8 -1 34
2020-01-07 16:00:00 14 4 Norte 16 Noroeste 0 948 -1.4 34
2020-01-07 15:00:00 13.9 4 Norte 12 Norte 0 948 -2.4 31
2020-01-07 14:00:00 12.7 4 Norte 9 Norte 0 948.8 -1.7 35
2020-01-07 13:00:00 10.2 3 Noroeste 14 Noroeste 0 949.4 -1 46
2020-01-07 12:00:00 6.7 4 Norte 7 Norte 0 950.4 0.2 61
2020-01-07 11:00:00 3.5 0 Calma 6 Norte 0 950.5 1.1 71
2020-01-07 10:00:00 0.5 0 Calma 4 Sur 0 950.4 1.2 83
2020-01-07 09:00:00 -1.3 0 Calma 4 Nordeste 0 950.2 0.7 86
2020-01-07 08:00:00 -1.1 0 Calma 4 Norte 0 949.4 0.1 85
2020-01-07 07:00:00 -0.9 3 Norte 5 Norte 0 949.2 -0.3 85
2020-01-07 06:00:00 -0.4 0 Calma 5 Norte 0 949.5 0.1 85
2020-01-07 05:00:00 -0.4 3 Nordeste 7 Nordeste 0 949.3 -0.1 86
2020-01-07 04:00:00 -0.1 0 Calma 6 Nordeste 0 949.5 -0.1 85
2020-01-07 03:00:00 0.3 0 Calma 4 Nordeste 0 949.4 0.4 84
2020-01-07 02:00:00 1 0 Calma 8 Nordeste 0 949.4 0.7 83
2020-01-07 01:00:00 1.3 3 Nordeste 7 Nordeste 0 949.6 0.2 82
2020-01-07 00:00:00 1.7 4 Nordeste 9 Nordeste 0 949 1 83
2020-01-06 23:00:00 3.2 5 Nordeste 10 Nordeste 0 948.7 0.9 81
2020-01-06 22:00:00 3.2 4 Nordeste 8 Nordeste 0 949.4 2.5 78
2020-01-06 21:00:00 4.5 0 Calma 4 Norte 0 948 1.7 72
2020-01-06 20:00:00 6.6 0 Calma -- -- 0 947.8 1.4 61
2020-01-06 19:00:00 8.9 0 Calma 5 Norte 0 946.9 0.8 50
2020-01-06 18:00:00 11.6 0 Calma 6 Norte 0 946.3 0.3 36
2020-01-06 17:00:00 13 3 Norte 7 Norte 0 946.4 -0.3 33
2020-01-06 16:00:00 13.6 0 Calma 8 Noroeste 0 946.1 -1.4 36
2020-01-06 15:00:00 13.4 0 Calma 6 Este 0 946 -2.3 40
2020-01-06 14:00:00 11.8 0 Calma 10 Norte 0 946.7 -1.4 44
2020-01-06 13:00:00 9.6 4 Norte 9 Norte 0 947.5 -0.8 50
2020-01-06 12:00:00 7.3 3 Norte 8 Norte 0 948.3 0.7 61
2020-01-06 11:00:00 4.4 0 Calma 5 Sudoeste 0 948.1 1.1 67
2020-01-06 10:00:00 1.1 0 Calma -- -- 0 948.3 1.2 82